Ruskin, Florida
Current Conditions -  °F | °C
As of 8:58 PM on Friday 19 Dec 2014 (Local Time) from KMCF Reporting Station
Overcast Overcast  
Wind Chill: 57°   Ceiling: 20000
Heat Index: 57°   Visibility: 10mi
Dew Point: 53°   Wind: 7mph
Humidity: 87%   Direction: 60°ENE
Pressure: 30.09"   Gusts: NA
Location:  27.72°N, 82.43°W
Report Text: KMCF 200158Z AUTO 06006KT 10SM OVC200 14/12 A3009 RMK AO2 SLP193 T01400119 $
Loading
Personal Weather Stations






























Interactive Weather Map New forecast layout! Learn more

10-Day Weather Forecast

Advertisements
Track Severe Weather on mobile